Time;durP1;ratioP1;P1;durP2;ratioP2;P2;SDS_P1;SDS_P2;PMS_P1;PMS_P2;Temp;Humidity;BMP_temperature;BMP_pressure;BME280_temperature;BME280_humidity;BME280_pressure;Samples;Min_cycle;Max_cycle;Signal;HPM_P1;HPM_P2
2023/03/24 00:00:04;;;;;;;4.25;4.05;;;;;;;11.57;100.00;99718.34;6142624;23;20687;-75
2023/03/24 00:02:36;;;;;;;4.28;4.07;;;;;;;11.54;100.00;99721.19;6113126;23;20025;-73
2023/03/24 00:05:04;;;;;;;4.85;4.55;;;;;;;11.54;100.00;99722.97;6132048;23;20021;-74
2023/03/24 00:07:32;;;;;;;4.60;4.40;;;;;;;11.09;100.00;99667.53;6114830;23;20061;-75
2023/03/24 00:10:00;;;;;;;4.50;4.30;;;;;;;11.54;100.00;99715.91;6154526;23;20807;-74
2023/03/24 00:12:26;;;;;;;4.38;4.07;;;;;;;11.53;100.00;99716.06;6118131;23;20044;-73
2023/03/24 00:14:53;;;;;;;4.70;4.50;;;;;;;11.51;100.00;99723.22;6153861;23;20044;-73
2023/03/24 00:17:24;;;;;;;4.63;4.32;;;;;;;9.72;100.00;99422.63;6142684;23;20029;-75
2023/03/24 00:19:51;;;;;;;4.75;4.50;;;;;;;11.48;100.00;99700.59;6115540;23;20029;-74
2023/03/24 00:22:20;;;;;;;4.47;4.28;;;;;;;11.47;100.00;99691.06;6143417;23;20046;-75
2023/03/24 00:24:46;;;;;;;4.85;4.47;;;;;;;11.48;100.00;99694.50;6153174;23;20527;-74
2023/03/24 00:27:14;;;;;;;4.40;4.20;;;;;;;11.46;100.00;99686.72;6145063;23;20020;-76
2023/03/24 00:29:40;;;;;;;4.50;4.30;;;;;;;11.15;100.00;99627.72;6114684;23;20108;-75
2023/03/24 00:32:07;;;;;;;4.30;4.10;;;;;;;11.45;100.00;99684.25;6141027;23;20470;-75
2023/03/24 00:34:37;;;;;;;4.65;4.40;;;;;;;11.45;100.00;99677.19;6108151;23;20037;-74
2023/03/24 00:37:05;;;;;;;4.60;4.40;;;;;;;11.40;100.00;99653.03;6139386;23;20102;-76
2023/03/24 00:39:32;;;;;;;4.82;4.53;;;;;;;11.46;100.00;99655.22;6108843;23;20016;-75
2023/03/24 00:42:00;;;;;;;4.40;4.20;;;;;;;10.85;100.00;99552.00;6140900;23;20017;-74
2023/03/24 00:44:27;;;;;;;5.15;4.75;;;;;;;11.13;100.00;99598.09;6124861;23;20515;-74
2023/03/24 00:46:56;;;;;;;4.60;4.30;;;;;;;11.11;100.00;99595.56;6141485;23;20024;-74
2023/03/24 00:49:43;;;;;;;4.60;4.40;;;;;;;11.45;100.00;99647.47;6152047;23;20028;-76
2023/03/24 00:52:19;;;;;;;4.75;4.35;;;;;;;11.34;100.00;99614.06;6092686;23;20014;-74
2023/03/24 00:54:47;;;;;;;12.13;4.72;;;;;;;11.26;100.00;99609.38;6142309;23;20072;-74
2023/03/24 00:57:21;;;;;;;4.90;4.60;;;;;;;11.45;100.00;99632.53;6149510;23;20040;-75
2023/03/24 00:59:49;;;;;;;5.03;4.72;;;;;;;11.26;100.00;99598.03;6141812;23;20029;-75
2023/03/24 01:02:20;;;;;;;4.60;4.30;;;;;;;10.48;100.00;99491.63;6113776;23;20021;-75
2023/03/24 01:04:52;;;;;;;4.60;4.40;;;;;;;11.00;100.00;99552.66;6140585;23;20046;-75
2023/03/24 01:07:20;;;;;;;5.05;4.65;;;;;;;11.46;100.00;99625.47;6153021;23;20454;-76
2023/03/24 01:09:56;;;;;;;4.40;4.20;;;;;;;10.93;100.00;99536.53;6140509;23;20032;-75
2023/03/24 01:12:29;;;;;;;4.60;4.40;;;;;;;11.45;100.00;99614.13;6086538;23;20029;-76
2023/03/24 01:15:01;;;;;;;5.18;4.88;;;;;;;11.48;100.00;99615.69;6147933;23;20690;-75
2023/03/24 01:17:28;;;;;;;4.47;4.18;;;;;;;11.50;100.00;99608.53;6139738;23;20031;-76
2023/03/24 01:19:56;;;;;;;5.28;4.88;;;;;;;11.52;100.00;99614.50;6149039;23;20107;-74
2023/03/24 01:22:28;;;;;;;4.38;4.18;;;;;;;11.50;100.00;99606.75;6144542;23;20483;-75
2023/03/24 01:24:54;;;;;;;4.70;4.50;;;;;;;11.32;100.00;99568.69;6149643;23;20037;-74
2023/03/24 01:27:21;;;;;;;4.82;4.53;;;;;;;10.99;100.00;99515.06;6120460;23;20017;-74
2023/03/24 01:29:48;;;;;;;4.72;4.53;;;;;;;11.56;100.00;99597.56;6112629;23;20033;-75
2023/03/24 01:32:14;;;;;;;4.82;4.53;;;;;;;11.26;100.00;99535.81;6141068;23;20021;-75
2023/03/24 01:34:41;;;;;;;4.78;4.57;;;;;;;11.58;100.00;99583.34;6151662;23;20592;-76
2023/03/24 01:37:08;;;;;;;4.70;4.50;;;;;;;11.63;100.00;99571.69;6140452;23;20024;-74
2023/03/24 01:39:34;;;;;;;4.80;4.50;;;;;;;11.35;100.00;99532.53;6146401;23;20107;-76
2023/03/24 01:42:01;;;;;;;5.03;4.72;;;;;;;11.21;100.00;99477.56;6140089;23;20611;-74
2023/03/24 01:44:33;;;;;;;5.10;4.80;;;;;;;11.06;100.00;99453.28;6153716;23;20039;-74
2023/03/24 01:47:01;;;;;;;5.30;4.90;;;;;;;11.77;100.00;99550.47;6142232;23;20025;-78
2023/03/24 01:49:37;;;;;;;5.50;4.30;;;;;;;11.67;100.00;99518.78;6155550;23;20036;-77
2023/03/24 01:52:10;;;;;;;5.10;4.75;;;;;;;11.78;100.00;99531.09;6143333;23;20013;-76
2023/03/24 01:54:47;;;;;;;5.53;5.13;;;;;;;11.80;100.00;99528.38;6149951;23;20794;-75
2023/03/24 01:57:23;;;;;;;4.80;4.60;;;;;;;11.81;100.00;99528.25;6089559;23;20033;-76
2023/03/24 01:59:54;;;;;;;4.80;4.50;;;;;;;11.51;100.00;99478.84;6154802;23;20041;-75
2023/03/24 02:02:21;;;;;;;5.10;4.80;;;;;;;11.18;100.00;99394.63;6116364;23;20435;-74
2023/03/24 02:05:00;;;;;;;5.20;4.90;;;;;;;11.57;100.00;99468.72;6151992;23;20021;-74
2023/03/24 02:07:35;;;;;;;4.63;4.43;;;;;;;11.14;100.00;99401.03;6139722;23;20028;-74
2023/03/24 02:10:06;;;;;;;5.20;4.90;;;;;;;11.80;100.00;99497.66;6111384;23;20018;-75
2023/03/24 02:12:32;;;;;;;4.57;4.38;;;;;;;11.78;100.00;99491.66;6109204;23;20480;-76
2023/03/24 02:15:00;;;;;;;5.05;4.70;;;;;;;11.61;100.00;99452.72;6152486;23;20560;-76
2023/03/24 02:17:28;;;;;;;4.68;4.40;;;;;;;11.82;100.00;99482.59;6138498;23;20025;-74
2023/03/24 02:20:13;;;;;;;5.30;4.75;;;;;;;11.86;100.00;99467.44;6112192;23;20033;-76
2023/03/24 02:22:55;;;;;;;5.07;4.60;;;;;;;11.90;100.00;99455.75;6163367;23;20072;-76
2023/03/24 02:25:50;;;;;;;5.13;4.82;;;;;;;11.98;100.00;99459.44;6143435;23;20024;-75
2023/03/24 02:28:33;;;;;;;4.70;4.50;;;;;;;11.98;100.00;99454.19;6151493;23;20043;-75
2023/03/24 02:31:34;;;;;;;4.50;4.30;;;;;;;11.87;100.00;99435.78;6117912;23;20043;-74
2023/03/24 02:34:24;;;;;;;5.90;4.50;;;;;;;12.02;100.00;99459.22;6079019;23;20070;-75
2023/03/24 02:37:26;;;;;;;4.80;4.50;;;;;;;12.09;100.00;99457.78;6106475;23;20130;-74
2023/03/24 02:40:11;;;;;;;5.80;5.20;;;;;;;12.11;100.00;99459.34;6108121;23;20103;-75
2023/03/24 02:42:54;;;;;;;4.85;4.57;;;;;;;12.02;100.00;99427.66;6136443;23;20108;-74
2023/03/24 02:45:34;;;;;;;4.72;4.43;;;;;;;11.94;100.00;99397.53;6150986;23;20029;-74
2023/03/24 02:48:26;;;;;;;5.00;4.70;;;;;;;12.18;100.00;99444.72;6134818;23;20028;-75
2023/03/24 02:51:07;;;;;;;4.63;4.35;;;;;;;11.45;100.00;99322.53;6144005;23;20615;-76
2023/03/24 02:53:40;;;;;;;4.70;4.50;;;;;;;12.34;100.00;99443.53;6109895;23;20041;-74
2023/03/24 02:56:12;;;;;;;4.80;4.55;;;;;;;12.45;100.00;99451.41;6157687;23;20078;-75
2023/03/24 02:58:48;;;;;;;4.97;4.68;;;;;;;12.60;100.00;99437.97;6139070;23;20250;-74
2023/03/24 03:01:32;;;;;;;4.80;4.60;;;;;;;12.22;100.00;99369.06;6154254;23;20660;-75
2023/03/24 03:04:11;;;;;;;5.40;5.05;;;;;;;11.61;100.00;99251.22;6143318;23;20024;-74
2023/03/24 03:06:41;;;;;;;5.15;4.85;;;;;;;12.78;100.00;99433.84;6153719;23;20454;-75
2023/03/24 03:09:15;;;;;;;5.30;5.00;;;;;;;11.81;100.00;99283.78;6116935;23;20017;-74
2023/03/24 03:11:46;;;;;;;5.53;5.22;;;;;;;12.75;100.00;99419.16;6139930;23;20036;-75
2023/03/24 03:14:29;;;;;;;4.80;4.50;;;;;;;12.61;100.00;99366.78;6145889;23;20021;-74
2023/03/24 03:17:01;;;;;;;;;;;;;;;13.10;100.00;99418.03;6140602;23;20036;-74
2023/03/24 03:19:34;;;;;;;5.30;5.00;;;;;;;13.17;100.00;99421.81;6154899;23;19959;-75
2023/03/24 03:22:06;;;;;;;4.95;4.75;;;;;;;12.80;100.00;99346.84;6144072;23;20025;-74
2023/03/24 03:24:38;;;;;;;4.70;4.50;;;;;;;12.37;100.00;99286.28;6125803;23;20124;-74
2023/03/24 03:27:17;;;;;;;5.25;4.88;;;;;;;13.01;100.00;99388.97;6139756;23;20133;-76
2023/03/24 03:29:49;;;;;;;5.10;4.70;;;;;;;13.09;100.00;99389.16;6126353;23;20040;-74
2023/03/24 03:32:27;;;;;;;4.72;4.50;;;;;;;12.35;100.00;99287.38;6142371;23;20119;-75
2023/03/24 03:35:13;;;;;;;5.50;5.20;;;;;;;13.14;100.00;99416.78;6151633;23;20051;-74
2023/03/24 03:37:53;;;;;;;4.63;4.40;;;;;;;13.27;100.00;99415.75;6141253;23;20653;-76
2023/03/24 03:40:24;;;;;;;5.90;5.03;;;;;;;13.20;100.00;99420.72;6149968;23;20036;-75
2023/03/24 03:42:51;;;;;;;5.13;4.82;;;;;;;12.82;100.00;99358.91;6091015;23;20020;-75
2023/03/24 03:45:17;;;;;;;5.00;4.70;;;;;;;13.18;100.00;99415.56;6107728;23;20555;-74
2023/03/24 03:47:44;;;;;;;5.05;4.75;;;;;;;13.11;100.00;99422.34;6143934;23;20020;-75
2023/03/24 03:50:11;;;;;;;6.60;5.10;;;;;;;13.01;100.00;99403.00;6122948;23;20493;-74
2023/03/24 03:52:40;;;;;;;4.60;4.40;;;;;;;13.15;100.00;99420.28;6143812;23;20031;-74
2023/03/24 03:55:07;;;;;;;4.80;4.60;;;;;;;12.66;100.00;99358.50;6153540;23;20015;-74
2023/03/24 03:57:35;;;;;;;4.93;4.65;;;;;;;12.52;100.00;99347.31;6142728;23;20025;-74
2023/03/24 04:00:08;;;;;;;5.25;4.90;;;;;;;13.06;100.00;99431.56;6149131;23;20028;-74
2023/03/24 04:02:51;;;;;;;5.05;4.75;;;;;;;13.07;100.00;99420.06;6141145;23;20788;-74
2023/03/24 04:06:03;;;;;;;5.65;5.25;;;;;;;13.12;100.00;99444.25;6112748;23;20037;-75
2023/03/24 04:08:46;;;;;;;4.70;4.50;;;;;;;12.55;100.00;99352.34;6043169;23;20031;-75
2023/03/24 04:11:45;;;;;;;6.35;4.55;;;;;;;12.53;100.00;99325.31;6044818;23;20044;-74
2023/03/24 04:14:32;;;;;;;5.97;5.15;;;;;;;12.97;100.00;99407.69;6097828;23;20046;-74
2023/03/24 04:17:07;;;;;;;5.30;4.85;;;;;;;13.18;100.00;99433.19;6150566;23;20027;-75
2023/03/24 04:19:40;;;;;;;5.35;4.95;;;;;;;13.14;100.00;99439.69;6139689;23;20037;-74
2023/03/24 04:22:18;;;;;;;5.10;4.82;;;;;;;13.08;100.00;99430.47;6149389;23;20036;-74
2023/03/24 04:25:26;;;;;;;5.53;5.20;;;;;;;13.17;100.00;99453.44;6139775;23;20031;-75
2023/03/24 04:28:04;;;;;;;4.90;4.60;;;;;;;13.10;100.00;99468.06;6098154;23;20741;-74
2023/03/24 04:30:49;;;;;;;4.95;4.68;;;;;;;12.17;100.00;99331.78;6121905;23;20022;-75
2023/03/24 04:33:23;;;;;;;5.55;5.15;;;;;;;12.98;100.00;99505.94;6151926;23;20029;-75
2023/03/24 04:36:05;;;;;;;5.15;4.75;;;;;;;12.75;100.00;99469.16;6094835;23;20061;-74
2023/03/24 04:38:35;;;;;;;5.65;5.03;;;;;;;12.22;100.00;99400.63;6140350;23;20035;-75
2023/03/24 04:41:04;;;;;;;4.95;4.68;;;;;;;12.59;100.00;99468.72;6152097;23;20036;-74
2023/03/24 04:43:35;;;;;;;4.90;4.70;;;;;;;12.40;100.00;99464.09;6145422;23;20031;-74
2023/03/24 04:46:04;;;;;;;5.50;5.20;;;;;;;12.68;100.00;99532.94;6149113;23;20099;-76
2023/03/24 04:48:30;;;;;;;4.60;4.40;;;;;;;12.16;100.00;99451.09;6140634;23;20029;-74
2023/03/24 04:50:59;;;;;;;5.25;4.95;;;;;;;12.58;100.00;99546.00;6150831;23;20029;-74
2023/03/24 04:53:26;;;;;;;4.80;4.60;;;;;;;12.28;100.00;99494.81;6141248;23;20726;-75
2023/03/24 04:56:12;;;;;;;5.57;5.07;;;;;;;12.38;100.00;99550.19;6119174;23;20036;-74
2023/03/24 04:58:39;;;;;;;5.10;4.80;;;;;;;12.10;100.00;99523.41;6138732;23;20076;-74
2023/03/24 05:01:07;;;;;;;4.95;4.65;;;;;;;12.03;100.00;99505.59;6125007;23;20084;-74
2023/03/24 05:03:36;;;;;;;5.13;4.82;;;;;;;11.97;100.00;99509.53;6141666;23;20028;-74
2023/03/24 05:06:06;;;;;;;5.32;4.90;;;;;;;12.21;100.00;99571.69;6154974;23;20048;-74
2023/03/24 05:08:33;;;;;;;5.18;4.78;;;;;;;11.68;100.00;99493.34;6142916;23;20041;-75
2023/03/24 05:10:59;;;;;;;5.03;4.80;;;;;;;11.93;100.00;99543.13;6157807;23;20097;-75
2023/03/24 05:13:25;;;;;;;12.35;5.38;;;;;;;12.13;100.00;99599.44;6141960;23;20028;-73
2023/03/24 05:15:53;;;;;;;5.05;4.65;;;;;;;11.68;100.00;99538.00;6156046;23;20463;-74
2023/03/24 05:18:19;;;;;;;4.88;4.63;;;;;;;11.62;100.00;99520.06;6143107;23;20088;-74
2023/03/24 05:20:46;;;;;;;8.00;5.25;;;;;;;11.75;100.00;99553.22;6149400;23;20029;-76
2023/03/24 05:23:12;;;;;;;5.15;4.85;;;;;;;11.42;100.00;99516.31;6139827;23;20027;-75
2023/03/24 05:25:39;;;;;;;5.10;4.80;;;;;;;11.75;100.00;99594.44;6123359;23;20028;-73
2023/03/24 05:28:05;;;;;;;5.00;4.60;;;;;;;11.26;100.00;99530.56;6141452;23;20555;-74
2023/03/24 05:30:32;;;;;;;4.50;4.30;;;;;;;11.38;100.00;99570.88;6150757;23;20016;-75
2023/03/24 05:32:58;;;;;;;4.68;4.38;;;;;;;11.04;100.00;99519.97;6087593;23;20176;-75
2023/03/24 05:35:27;;;;;;;4.40;4.20;;;;;;;11.29;100.00;99585.53;6139061;23;20109;-75
2023/03/24 05:37:54;;;;;;;4.50;4.30;;;;;;;11.49;100.00;99641.03;6150430;23;20443;-70
2023/03/24 05:40:20;;;;;;;4.20;4.00;;;;;;;11.22;100.00;99621.03;6138367;23;20025;-72
2023/03/24 05:42:50;;;;;;;5.30;4.80;;;;;;;11.05;100.00;99632.78;6151863;23;20029;-71
2023/03/24 05:45:17;;;;;;;4.50;4.30;;;;;;;10.86;100.00;99620.09;6138988;23;20664;-70
2023/03/24 05:47:44;;;;;;;4.68;4.28;;;;;;;10.79;100.00;99647.75;6123519;23;20087;-70
2023/03/24 05:50:11;;;;;;;4.35;4.15;;;;;;;10.55;100.00;99629.28;6140355;23;20025;-70
2023/03/24 05:52:37;;;;;;;4.30;4.10;;;;;;;10.59;100.00;99664.88;6088675;23;20039;-70
2023/03/24 05:55:04;;;;;;;4.10;3.90;;;;;;;9.98;100.00;99588.53;6119482;23;20596;-70
2023/03/24 05:57:30;;;;;;;4.70;4.30;;;;;;;10.41;100.00;99664.34;6109536;23;20032;-69
2023/03/24 05:59:57;;;;;;;4.22;4.03;;;;;;;9.84;100.00;99592.09;6108942;23;20026;-69
2023/03/24 06:02:23;;;;;;;4.18;3.97;;;;;;;10.19;100.00;99667.53;6157332;23;20095;-72
2023/03/24 06:04:51;;;;;;;4.65;4.25;;;;;;;10.14;100.00;99664.38;6138038;23;20033;-70
2023/03/24 06:07:17;;;;;;;4.18;3.97;;;;;;;10.09;100.00;99674.34;6147408;23;20621;-72
2023/03/24 06:09:49;;;;;;;4.10;3.90;;;;;;;10.02;100.00;99676.50;6136501;23;20050;-72
2023/03/24 06:12:17;;;;;;;4.00;3.80;;;;;;;9.93;100.00;99675.34;6149458;23;20029;-72
2023/03/24 06:14:44;;;;;;;4.40;4.10;;;;;;;9.96;100.00;99690.03;6114039;23;20378;-73
2023/03/24 06:17:13;;;;;;;9.00;4.28;;;;;;;9.75;100.00;99673.94;6125861;23;20084;-72
2023/03/24 06:19:48;;;;;;;4.40;4.00;;;;;;;9.58;100.00;99664.53;6090111;23;20041;-71
2023/03/24 06:22:19;;;;;;;4.05;3.83;;;;;;;9.17;100.00;99619.13;6138834;23;20017;-71
2023/03/24 06:24:45;;;;;;;4.18;3.97;;;;;;;9.39;100.00;99647.41;6157690;23;20125;-71
2023/03/24 06:27:13;;;;;;;4.20;4.00;;;;;;;9.69;100.00;99700.53;6137564;23;20016;-71
2023/03/24 06:29:41;;;;;;;4.32;4.07;;;;;;;9.47;100.00;99670.47;6110133;23;20055;-70
2023/03/24 06:32:08;;;;;;;4.10;3.90;;;;;;;9.87;100.00;99725.56;6122496;23;20369;-70
2023/03/24 06:34:37;;;;;;;4.10;3.90;;;;;;;9.13;100.00;99614.19;6143563;23;20392;-71
2023/03/24 06:37:04;;;;;;;4.28;4.07;;;;;;;9.33;100.00;99665.28;6141528;23;20487;-71
2023/03/24 06:39:30;;;;;;;8.90;4.20;;;;;;;9.41;100.00;99691.81;6157043;23;20599;-71
2023/03/24 06:41:56;;;;;;;3.95;3.80;;;;;;;9.72;100.00;99745.72;6142432;23;20016;-71
2023/03/24 06:44:23;;;;;;;4.20;4.00;;;;;;;9.67;100.00;99720.75;6133358;23;20037;-71
2023/03/24 06:46:50;;;;;;;4.40;4.20;;;;;;;9.59;100.00;99684.56;6141501;23;20012;-71
2023/03/24 06:49:16;;;;;;;4.78;4.38;;;;;;;9.34;100.00;99641.63;6157537;23;20082;-71
2023/03/24 06:51:42;;;;;;;8.35;4.32;;;;;;;9.42;100.00;99664.72;6143070;23;20020;-71
2023/03/24 06:54:09;;;;;;;4.10;3.90;;;;;;;8.76;100.00;99583.34;6152484;23;20269;-71
2023/03/24 06:56:36;;;;;;;8.65;4.30;;;;;;;10.00;100.00;99775.38;6144168;23;20009;-71
2023/03/24 06:59:02;;;;;;;4.30;4.10;;;;;;;9.67;100.00;99702.41;6157587;23;20032;-71
2023/03/24 07:01:29;;;;;;;4.60;4.20;;;;;;;10.16;100.00;99770.84;6119369;23;20120;-71
2023/03/24 07:03:56;;;;;;;4.35;4.15;;;;;;;9.85;100.00;99703.84;6129834;23;20431;-71
2023/03/24 07:06:23;;;;;;;4.35;4.13;;;;;;;9.55;100.00;99649.88;6122065;23;20028;-70
2023/03/24 07:08:50;;;;;;;4.82;3.95;;;;;;;9.76;100.00;99662.50;6150051;23;20035;-72
2023/03/24 07:11:16;;;;;;;4.68;4.28;;;;;;;10.17;100.00;99734.97;6114996;23;20113;-70
2023/03/24 07:13:43;;;;;;;4.30;4.10;;;;;;;9.80;100.00;99679.72;6154269;23;20024;-71
2023/03/24 07:16:09;;;;;;;9.43;5.88;;;;;;;10.04;100.00;99726.22;6140259;23;20021;-71
2023/03/24 07:18:36;;;;;;;5.28;4.80;;;;;;;9.95;100.00;99725.06;6151815;23;20045;-70
2023/03/24 07:21:03;;;;;;;4.93;4.63;;;;;;;9.96;100.00;99726.72;6116179;23;20965;-71
2023/03/24 07:23:31;;;;;;;5.78;4.65;;;;;;;9.85;100.00;99726.59;6151376;23;20172;-70
2023/03/24 07:25:57;;;;;;;4.18;3.97;;;;;;;9.36;100.00;99639.75;6140339;23;20040;-71
2023/03/24 07:28:24;;;;;;;4.40;4.20;;;;;;;9.37;100.00;99641.44;6150814;23;20407;-71
2023/03/24 07:30:51;;;;;;;4.60;4.30;;;;;;;9.95;100.00;99725.88;6120251;23;20059;-71
2023/03/24 07:33:20;;;;;;;4.70;4.50;;;;;;;8.34;100.00;99467.41;6124349;23;20025;-71
2023/03/24 07:35:47;;;;;;;5.78;4.30;;;;;;;9.93;100.00;99730.38;6118839;23;20671;-72
2023/03/24 07:38:14;;;;;;;4.55;4.25;;;;;;;9.83;100.00;99704.91;6155604;23;20025;-71
2023/03/24 07:40:40;;;;;;;4.40;4.20;;;;;;;9.51;100.00;99673.75;6116073;23;20026;-71
2023/03/24 07:43:07;;;;;;;4.45;4.25;;;;;;;9.88;100.00;99750.84;6152889;23;20682;-70
2023/03/24 07:45:34;;;;;;;6.30;4.50;;;;;;;9.73;100.00;99741.31;6137769;23;20070;-70
2023/03/24 07:48:00;;;;;;;5.13;4.72;;;;;;;9.82;100.00;99772.16;6151260;23;20705;-69
2023/03/24 07:50:28;;;;;;;4.80;4.50;;;;;;;9.80;100.00;99771.41;6145648;23;20085;-71
2023/03/24 07:52:55;;;;;;;6.85;4.15;;;;;;;9.84;100.00;99788.63;6148482;23;20023;-69
2023/03/24 07:55:26;;;;;;;6.65;4.53;;;;;;;9.95;100.00;99794.03;6143574;23;20021;-71
2023/03/24 07:57:53;;;;;;;4.60;4.30;;;;;;;10.08;100.00;99799.34;6154797;23;20503;-70
2023/03/24 08:00:21;;;;;;;7.18;4.63;;;;;;;10.16;100.00;99798.81;6142614;23;20611;-70
2023/03/24 08:02:50;;;;;;;4.57;4.15;;;;;;;10.24;100.00;99791.28;6152500;23;20110;-72
2023/03/24 08:05:19;;;;;;;4.85;4.55;;;;;;;10.24;100.00;99780.81;6141861;23;20019;-70
2023/03/24 08:07:54;;;;;;;4.68;4.43;;;;;;;10.29;100.00;99791.84;6114244;23;20030;-71
2023/03/24 08:10:26;;;;;;;4.50;4.20;;;;;;;9.91;100.00;99718.34;6142808;23;20081;-70
2023/03/24 08:12:54;;;;;;;5.45;4.18;;;;;;;10.32;100.00;99778.59;6149086;23;20027;-71
2023/03/24 08:15:21;;;;;;;4.45;4.25;;;;;;;10.72;100.00;99803.94;6114477;23;20032;-70
2023/03/24 08:17:48;;;;;;;4.88;4.57;;;;;;;11.12;100.00;99817.81;6145452;23;20027;-70
2023/03/24 08:20:15;;;;;;;5.65;5.25;;;;;;;11.18;100.00;99764.03;6141732;23;20105;-70
2023/03/24 08:22:48;;;;;;;4.55;4.25;;;;;;;10.72;99.41;99614.97;6144942;23;20020;-70
2023/03/24 08:25:18;;;;;;;4.93;4.57;;;;;;;11.95;96.16;99719.16;6140700;23;20025;-73
2023/03/24 08:27:46;;;;;;;4.47;4.28;;;;;;;12.48;91.62;99692.41;6106723;23;20022;-71
2023/03/24 08:30:19;;;;;;;5.45;4.78;;;;;;;12.70;86.03;99638.97;6141700;23;20275;-72
2023/03/24 08:32:47;;;;;;;11.57;4.90;;;;;;;12.78;81.94;99645.28;6155199;23;20031;-70
2023/03/24 08:35:17;;;;;;;6.43;4.82;;;;;;;12.26;82.69;99583.56;6143189;23;20032;-70
2023/03/24 08:37:44;;;;;;;4.72;4.53;;;;;;;12.28;82.69;99625.53;6111384;23;20622;-71
2023/03/24 08:40:16;;;;;;;5.50;5.00;;;;;;;12.12;82.57;99626.69;6140877;23;20036;-70
2023/03/24 08:42:44;;;;;;;5.40;5.10;;;;;;;12.14;84.39;99634.47;6112211;23;20048;-70
2023/03/24 08:45:11;;;;;;;5.28;4.82;;;;;;;11.98;85.14;99614.56;6114771;23;20029;-70
2023/03/24 08:47:39;;;;;;;8.43;4.45;;;;;;;12.78;84.43;99702.38;6141435;23;20565;-70
2023/03/24 08:50:07;;;;;;;5.63;4.80;;;;;;;12.82;82.61;99656.44;6141950;23;20101;-69
2023/03/24 08:52:34;;;;;;;4.65;4.35;;;;;;;12.69;81.06;99639.91;6152407;23;20028;-70
2023/03/24 08:55:01;;;;;;;4.93;4.53;;;;;;;12.08;80.75;99579.72;6112090;23;20033;-69
2023/03/24 08:57:27;;;;;;;6.63;4.00;;;;;;;11.09;80.66;99481.94;6155757;23;20708;-69
2023/03/24 08:59:53;;;;;;;5.82;5.07;;;;;;;12.46;81.43;99642.53;6146739;23;20099;-70
2023/03/24 09:02:20;;;;;;;5.38;4.97;;;;;;;12.83;81.37;99647.59;6112320;23;20041;-70
2023/03/24 09:04:48;;;;;;;4.95;4.60;;;;;;;12.70;78.44;99581.88;6119478;23;20036;-72
2023/03/24 09:07:15;;;;;;;5.65;5.05;;;;;;;12.92;78.69;99633.69;6149477;23;20013;-70
2023/03/24 09:09:41;;;;;;;5.43;5.00;;;;;;;13.16;78.57;99651.97;6137034;23;20025;-71
2023/03/24 09:12:08;;;;;;;4.97;4.68;;;;;;;13.26;76.89;99619.63;6123474;23;20047;-70
2023/03/24 09:14:34;;;;;;;4.30;4.10;;;;;;;12.40;75.10;99471.97;6145430;23;20094;-70
2023/03/24 09:17:01;;;;;;;5.53;5.00;;;;;;;12.79;76.75;99561.91;6149845;23;20021;-71
2023/03/24 09:19:28;;;;;;;4.97;4.65;;;;;;;13.39;74.81;99604.53;6139166;23;20103;-70
2023/03/24 09:21:54;;;;;;;4.90;4.60;;;;;;;13.30;73.22;99571.00;6157486;23;20096;-70
2023/03/24 09:24:21;;;;;;;5.47;5.13;;;;;;;13.50;73.44;99583.38;6141376;23;20088;-70
2023/03/24 09:26:47;;;;;;;6.45;5.85;;;;;;;13.35;73.30;99535.41;6149627;23;20084;-71
2023/03/24 09:29:13;;;;;;;8.00;5.35;;;;;;;13.62;71.35;99549.06;6141585;23;20024;-71
2023/03/24 09:31:40;;;;;;;13.10;5.80;;;;;;;13.61;71.82;99544.75;6151996;23;20033;-70
2023/03/24 09:34:07;;;;;;;6.63;5.20;;;;;;;13.33;70.73;99482.00;6142705;23;20025;-70
2023/03/24 09:36:33;;;;;;;5.40;4.90;;;;;;;13.25;70.35;99446.69;6150869;23;20013;-70
2023/03/24 09:39:00;;;;;;;12.60;5.25;;;;;;;13.91;71.17;99547.47;6143128;23;20161;-70
2023/03/24 09:41:29;;;;;;;8.48;5.00;;;;;;;14.14;69.42;99536.75;6146726;23;20021;-70
2023/03/24 09:44:45;;;;;;;5.60;4.78;;;;;;;14.56;68.49;99560.44;6139186;23;20055;-70
2023/03/24 09:47:37;;;;;;;5.57;5.05;;;;;;;14.88;67.21;99549.69;6139378;23;20084;-70
2023/03/24 09:50:24;;;;;;;7.15;4.80;;;;;;;14.11;66.66;99416.50;6143636;23;20593;-70
2023/03/24 09:52:58;;;;;;;5.90;5.10;;;;;;;13.88;67.70;99462.50;6149021;23;20032;-69
2023/03/24 09:55:27;;;;;;;5.07;4.78;;;;;;;13.40;67.21;99402.44;6142386;23;20035;-69
2023/03/24 09:58:03;;;;;;;5.90;5.05;;;;;;;13.39;67.60;99408.66;6148668;23;20040;-69
2023/03/24 10:00:31;;;;;;;6.00;5.43;;;;;;;12.86;68.28;99375.28;6142754;23;20033;-73
2023/03/24 10:03:19;;;;;;;6.00;4.75;;;;;;;13.81;68.01;99520.22;6153553;23;20049;-71
2023/03/24 10:05:57;;;;;;;11.35;4.88;;;;;;;13.38;66.86;99438.63;6114830;23;20029;-69
2023/03/24 10:08:43;;;;;;;5.15;4.68;;;;;;;13.50;67.20;99456.88;6154675;23;20013;-68
2023/03/24 10:11:26;;;;;;;4.80;4.50;;;;;;;13.35;67.34;99437.91;6138151;23;20141;-70
2023/03/24 10:14:14;;;;;;;4.80;4.50;;;;;;;13.46;68.63;99487.09;6113560;23;20107;-69
2023/03/24 10:16:58;;;;;;;4.80;4.50;;;;;;;13.54;68.48;99486.44;6141447;23;20009;-69
2023/03/24 10:19:39;;;;;;;6.78;5.40;;;;;;;13.74;69.25;99526.94;6146388;23;20112;-69
2023/03/24 10:22:17;;;;;;;4.72;4.43;;;;;;;13.49;67.65;99463.13;6142586;23;20077;-71
2023/03/24 10:25:14;;;;;;;5.00;4.20;;;;;;;13.05;67.65;99404.41;6154499;23;20098;-69
2023/03/24 10:28:08;;;;;;;4.82;4.53;;;;;;;13.07;68.92;99467.47;6139263;23;20609;-72
2023/03/24 10:30:41;;;;;;;5.15;4.75;;;;;;;12.76;69.26;99399.72;6149317;23;20020;-70
2023/03/24 10:33:12;;;;;;;5.75;4.85;;;;;;;12.88;69.45;99471.63;6110803;23;20029;-70
2023/03/24 10:35:45;;;;;;;6.40;4.80;;;;;;;12.61;71.21;99466.81;6142460;23;20029;-70
2023/03/24 10:38:17;;;;;;;4.72;4.53;;;;;;;12.63;70.60;99479.81;6147001;23;20090;-70
2023/03/24 10:40:46;;;;;;;4.93;4.60;;;;;;;12.72;70.85;99508.88;6141757;23;20032;-70
2023/03/24 10:43:14;;;;;;;6.45;4.32;;;;;;;12.78;71.29;99521.56;6145594;23;20056;-70
2023/03/24 10:45:46;;;;;;;4.70;4.50;;;;;;;13.30;69.84;99536.75;6138004;23;20044;-70
2023/03/24 10:48:32;;;;;;;9.05;5.55;;;;;;;13.88;68.18;99520.50;6124793;23;20016;-70
2023/03/24 10:50:58;;;;;;;4.80;4.50;;;;;;;14.08;65.80;99450.22;6139085;23;20020;-70
2023/03/24 10:53:26;;;;;;;7.13;4.60;;;;;;;15.06;63.00;99462.66;6123903;23;20635;-70
2023/03/24 10:55:52;;;;;;;5.05;4.75;;;;;;;14.96;63.03;99435.41;6139937;23;20088;-71
2023/03/24 10:58:48;;;;;;;5.93;4.78;;;;;;;15.52;62.35;99481.41;6145399;23;20041;-71
2023/03/24 11:01:29;;;;;;;5.55;5.00;;;;;;;15.53;60.71;99375.47;6089889;23;20237;-69
2023/03/24 11:04:04;;;;;;;5.25;4.75;;;;;;;15.94;59.83;99381.34;6148840;23;20040;-69
2023/03/24 11:06:31;;;;;;;9.15;4.95;;;;;;;15.12;60.52;99318.59;6092858;23;20029;-69
2023/03/24 11:09:20;;;;;;;14.52;13.63;;;;;;;15.46;60.37;99386.78;6052484;23;20796;-70
2023/03/24 11:11:49;;;;;;;10.10;5.20;;;;;;;15.37;59.73;99314.44;6101286;23;20024;-70
2023/03/24 11:14:25;;;;;;;5.68;4.97;;;;;;;14.84;61.63;99344.09;6109829;23;20033;-71
2023/03/24 11:17:02;;;;;;;5.15;4.80;;;;;;;14.44;61.28;99284.31;6110120;23;20021;-69
2023/03/24 11:19:31;;;;;;;6.65;4.78;;;;;;;14.14;61.19;99259.72;6084796;23;20030;-70
2023/03/24 11:22:03;;;;;;;4.93;4.53;;;;;;;14.20;61.92;99314.59;6111822;23;20606;-69
2023/03/24 11:24:35;;;;;;;5.20;4.80;;;;;;;14.70;60.98;99351.44;6087336;23;20036;-69
2023/03/24 11:27:02;;;;;;;4.72;4.53;;;;;;;14.40;61.04;99304.88;6082592;23;20108;-68
2023/03/24 11:29:37;;;;;;;5.18;4.78;;;;;;;14.60;60.75;99295.16;6113761;23;20296;-70
2023/03/24 11:32:12;;;;;;;5.82;5.10;;;;;;;14.76;60.43;99316.56;6084599;23;20053;-70
2023/03/24 11:34:45;;;;;;;7.15;5.10;;;;;;;15.22;59.45;99352.91;6091166;23;20034;-70
2023/03/24 11:37:20;;;;;;;4.95;4.63;;;;;;;15.40;59.12;99327.41;6086813;23;20033;-70
2023/03/24 11:40:12;;;;;;;6.03;4.70;;;;;;;14.63;58.50;99173.41;6088933;23;20689;-70
2023/03/24 11:42:54;;;;;;;9.48;4.90;;;;;;;15.53;58.14;99322.59;6114427;23;20078;-70
2023/03/24 11:45:29;;;;;;;5.10;4.80;;;;;;;16.45;57.73;99373.78;6083701;23;20041;-71
2023/03/24 11:47:57;;;;;;;5.18;4.88;;;;;;;16.57;56.59;99304.69;6110803;23;20021;-72
2023/03/24 11:50:37;;;;;;;4.80;4.60;;;;;;;16.09;55.12;99188.47;6085670;23;20120;-70